sensor_id;sensor_type;location;lat;lon;timestamp;temperature;humidity
35796;DHT22;21916;52.428;13.302;2023-04-24T00:01:32;11.30;99.90
35796;DHT22;21916;52.428;13.302;2023-04-24T00:03:59;11.30;99.90
35796;DHT22;21916;52.428;13.302;2023-04-24T00:06:26;11.40;99.90
35796;DHT22;21916;52.428;13.302;2023-04-24T00:09:01;11.40;99.90
35796;DHT22;21916;52.428;13.302;2023-04-24T00:11:28;11.40;99.90
35796;DHT22;21916;52.428;13.302;2023-04-24T00:13:56;11.40;99.90
35796;DHT22;21916;52.428;13.302;2023-04-24T00:16:22;11.50;99.90
35796;DHT22;21916;52.428;13.302;2023-04-24T00:18:48;11.40;99.90
35796;DHT22;21916;52.428;13.302;2023-04-24T00:21:15;11.40;99.90
35796;DHT22;21916;52.428;13.302;2023-04-24T00:23:43;11.40;99.90
35796;DHT22;21916;52.428;13.302;2023-04-24T00:26:09;11.40;99.90
35796;DHT22;21916;52.428;13.302;2023-04-24T00:28:35;11.40;99.90
35796;DHT22;21916;52.428;13.302;2023-04-24T00:31:03;11.40;99.90
35796;DHT22;21916;52.428;13.302;2023-04-24T00:33:29;11.40;99.90
35796;DHT22;21916;52.428;13.302;2023-04-24T00:35:55;11.30;99.90
35796;DHT22;21916;52.428;13.302;2023-04-24T00:38:20;11.40;99.90
35796;DHT22;21916;52.428;13.302;2023-04-24T00:40:48;11.40;99.90
35796;DHT22;21916;52.428;13.302;2023-04-24T00:43:16;11.40;99.90
35796;DHT22;21916;52.428;13.302;2023-04-24T00:45:42;11.40;99.90
35796;DHT22;21916;52.428;13.302;2023-04-24T00:48:09;11.40;99.90
35796;DHT22;21916;52.428;13.302;2023-04-24T00:50:36;11.40;99.90
35796;DHT22;21916;52.428;13.302;2023-04-24T00:53:02;11.30;99.90
35796;DHT22;21916;52.428;13.302;2023-04-24T00:55:28;11.40;99.90
35796;DHT22;21916;52.428;13.302;2023-04-24T00:57:54;11.40;99.90
35796;DHT22;21916;52.428;13.302;2023-04-24T01:00:21;11.40;99.90
35796;DHT22;21916;52.428;13.302;2023-04-24T01:02:47;11.40;99.90
35796;DHT22;21916;52.428;13.302;2023-04-24T01:05:13;11.40;99.90
35796;DHT22;21916;52.428;13.302;2023-04-24T01:07:45;11.40;99.90
35796;DHT22;21916;52.428;13.302;2023-04-24T01:10:14;11.40;99.90
35796;DHT22;21916;52.428;13.302;2023-04-24T01:12:40;11.40;99.90
35796;DHT22;21916;52.428;13.302;2023-04-24T01:15:07;11.40;99.90
35796;DHT22;21916;52.428;13.302;2023-04-24T01:17:34;11.50;99.90
35796;DHT22;21916;52.428;13.302;2023-04-24T01:20:00;11.50;99.90
35796;DHT22;21916;52.428;13.302;2023-04-24T01:22:30;11.50;99.90
35796;DHT22;21916;52.428;13.302;2023-04-24T01:24:56;11.50;99.90
35796;DHT22;21916;52.428;13.302;2023-04-24T01:27:23;11.40;99.90
35796;DHT22;21916;52.428;13.302;2023-04-24T01:29:48;11.40;99.90
35796;DHT22;21916;52.428;13.302;2023-04-24T01:32:15;11.50;99.90
35796;DHT22;21916;52.428;13.302;2023-04-24T01:34:41;11.40;99.90
35796;DHT22;21916;52.428;13.302;2023-04-24T01:37:07;11.30;99.90
35796;DHT22;21916;52.428;13.302;2023-04-24T01:39:33;11.30;99.90
35796;DHT22;21916;52.428;13.302;2023-04-24T01:42:00;11.20;99.90
35796;DHT22;21916;52.428;13.302;2023-04-24T01:44:27;11.20;99.90
35796;DHT22;21916;52.428;13.302;2023-04-24T01:46:55;11.20;99.90
35796;DHT22;21916;52.428;13.302;2023-04-24T01:49:21;11.10;99.90
35796;DHT22;21916;52.428;13.302;2023-04-24T01:51:47;11.00;99.90
35796;DHT22;21916;52.428;13.302;2023-04-24T01:54:13;11.10;99.90
35796;DHT22;21916;52.428;13.302;2023-04-24T01:56:43;11.10;99.90
35796;DHT22;21916;52.428;13.302;2023-04-24T01:59:10;11.10;99.90
35796;DHT22;21916;52.428;13.302;2023-04-24T02:01:37;11.00;99.90
35796;DHT22;21916;52.428;13.302;2023-04-24T02:04:07;11.00;99.90
35796;DHT22;21916;52.428;13.302;2023-04-24T02:06:35;11.00;99.90
35796;DHT22;21916;52.428;13.302;2023-04-24T02:09:01;11.00;99.90
35796;DHT22;21916;52.428;13.302;2023-04-24T02:11:27;11.00;99.90
35796;DHT22;21916;52.428;13.302;2023-04-24T02:13:53;11.00;99.90
35796;DHT22;21916;52.428;13.302;2023-04-24T02:16:21;11.00;99.90
35796;DHT22;21916;52.428;13.302;2023-04-24T02:18:47;11.10;99.90
35796;DHT22;21916;52.428;13.302;2023-04-24T02:21:12;11.00;99.90
35796;DHT22;21916;52.428;13.302;2023-04-24T02:23:38;11.00;99.90
35796;DHT22;21916;52.428;13.302;2023-04-24T02:26:05;11.00;99.90
35796;DHT22;21916;52.428;13.302;2023-04-24T02:28:31;11.00;99.90
35796;DHT22;21916;52.428;13.302;2023-04-24T02:30:57;11.00;99.90
35796;DHT22;21916;52.428;13.302;2023-04-24T02:33:24;11.00;99.90
35796;DHT22;21916;52.428;13.302;2023-04-24T02:35:50;11.10;99.90
35796;DHT22;21916;52.428;13.302;2023-04-24T02:38:16;11.00;99.90
35796;DHT22;21916;52.428;13.302;2023-04-24T02:40:43;11.00;99.90
35796;DHT22;21916;52.428;13.302;2023-04-24T02:43:09;11.00;99.90
35796;DHT22;21916;52.428;13.302;2023-04-24T02:45:36;11.00;99.90
35796;DHT22;21916;52.428;13.302;2023-04-24T02:48:03;11.00;99.90
35796;DHT22;21916;52.428;13.302;2023-04-24T02:50:29;11.00;99.90
35796;DHT22;21916;52.428;13.302;2023-04-24T02:52:56;11.10;99.90
35796;DHT22;21916;52.428;13.302;2023-04-24T02:55:22;11.10;99.90
35796;DHT22;21916;52.428;13.302;2023-04-24T02:57:48;11.20;99.90
35796;DHT22;21916;52.428;13.302;2023-04-24T03:00:14;11.20;99.90
35796;DHT22;21916;52.428;13.302;2023-04-24T03:02:40;11.20;99.90
35796;DHT22;21916;52.428;13.302;2023-04-24T03:05:06;11.20;99.90
35796;DHT22;21916;52.428;13.302;2023-04-24T03:07:33;11.20;99.90
35796;DHT22;21916;52.428;13.302;2023-04-24T03:09:59;11.20;99.90
35796;DHT22;21916;52.428;13.302;2023-04-24T03:12:26;11.30;99.90
35796;DHT22;21916;52.428;13.302;2023-04-24T03:14:52;11.30;99.90
35796;DHT22;21916;52.428;13.302;2023-04-24T03:17:18;11.20;99.90
35796;DHT22;21916;52.428;13.302;2023-04-24T03:19:45;11.30;99.90
35796;DHT22;21916;52.428;13.302;2023-04-24T03:22:12;11.30;99.90
35796;DHT22;21916;52.428;13.302;2023-04-24T03:24:39;11.30;99.90
35796;DHT22;21916;52.428;13.302;2023-04-24T03:27:07;11.30;99.90
35796;DHT22;21916;52.428;13.302;2023-04-24T03:29:59;11.30;99.90
35796;DHT22;21916;52.428;13.302;2023-04-24T03:32:46;11.30;99.90
35796;DHT22;21916;52.428;13.302;2023-04-24T03:35:16;11.30;99.90
35796;DHT22;21916;52.428;13.302;2023-04-24T03:37:42;11.30;99.90
35796;DHT22;21916;52.428;13.302;2023-04-24T03:40:27;11.30;99.90
35796;DHT22;21916;52.428;13.302;2023-04-24T03:42:56;11.30;99.90
35796;DHT22;21916;52.428;13.302;2023-04-24T03:45:22;11.40;99.90
35796;DHT22;21916;52.428;13.302;2023-04-24T03:47:50;11.40;99.90
35796;DHT22;21916;52.428;13.302;2023-04-24T03:50:16;11.50;99.90
35796;DHT22;21916;52.428;13.302;2023-04-24T03:52:43;11.40;99.90
35796;DHT22;21916;52.428;13.302;2023-04-24T03:55:12;11.40;99.90
35796;DHT22;21916;52.428;13.302;2023-04-24T03:57:43;11.50;99.90
35796;DHT22;21916;52.428;13.302;2023-04-24T04:00:18;11.50;99.90
35796;DHT22;21916;52.428;13.302;2023-04-24T04:02:51;11.40;99.90
35796;DHT22;21916;52.428;13.302;2023-04-24T04:05:17;11.50;99.90
35796;DHT22;21916;52.428;13.302;2023-04-24T04:07:43;11.50;99.90
35796;DHT22;21916;52.428;13.302;2023-04-24T04:10:10;11.50;99.90
35796;DHT22;21916;52.428;13.302;2023-04-24T04:12:38;11.50;99.90
35796;DHT22;21916;52.428;13.302;2023-04-24T04:15:04;11.40;99.90
35796;DHT22;21916;52.428;13.302;2023-04-24T04:17:32;11.60;99.90
35796;DHT22;21916;52.428;13.302;2023-04-24T04:19:59;11.60;99.90
35796;DHT22;21916;52.428;13.302;2023-04-24T04:22:26;11.50;99.90
35796;DHT22;21916;52.428;13.302;2023-04-24T04:24:52;11.50;99.90
35796;DHT22;21916;52.428;13.302;2023-04-24T04:27:22;11.50;99.90
35796;DHT22;21916;52.428;13.302;2023-04-24T04:29:55;11.60;99.90
35796;DHT22;21916;52.428;13.302;2023-04-24T04:32:23;11.60;99.90
35796;DHT22;21916;52.428;13.302;2023-04-24T04:34:49;11.60;99.90
35796;DHT22;21916;52.428;13.302;2023-04-24T04:37:19;11.60;99.90
35796;DHT22;21916;52.428;13.302;2023-04-24T04:40:03;11.70;99.90
35796;DHT22;21916;52.428;13.302;2023-04-24T04:42:38;11.60;99.90
35796;DHT22;21916;52.428;13.302;2023-04-24T04:45:07;11.70;99.90
35796;DHT22;21916;52.428;13.302;2023-04-24T04:47:47;11.80;99.90
35796;DHT22;21916;52.428;13.302;2023-04-24T04:50:13;11.80;99.90
35796;DHT22;21916;52.428;13.302;2023-04-24T04:52:39;11.90;99.90
35796;DHT22;21916;52.428;13.302;2023-04-24T04:55:18;11.90;99.90
35796;DHT22;21916;52.428;13.302;2023-04-24T04:58:16;11.90;99.90
35796;DHT22;21916;52.428;13.302;2023-04-24T05:00:44;12.00;99.90
35796;DHT22;21916;52.428;13.302;2023-04-24T05:03:20;12.00;99.90
35796;DHT22;21916;52.428;13.302;2023-04-24T05:05:47;12.00;99.90
35796;DHT22;21916;52.428;13.302;2023-04-24T05:08:15;12.10;99.90
35796;DHT22;21916;52.428;13.302;2023-04-24T05:10:41;12.10;99.90
35796;DHT22;21916;52.428;13.302;2023-04-24T05:13:09;12.20;99.90
35796;DHT22;21916;52.428;13.302;2023-04-24T05:15:35;12.20;99.90
35796;DHT22;21916;52.428;13.302;2023-04-24T05:18:02;12.20;99.90
35796;DHT22;21916;52.428;13.302;2023-04-24T05:20:28;12.30;99.90
35796;DHT22;21916;52.428;13.302;2023-04-24T05:22:54;12.30;99.90
35796;DHT22;21916;52.428;13.302;2023-04-24T05:25:22;12.30;99.90
35796;DHT22;21916;52.428;13.302;2023-04-24T05:27:54;12.30;99.90
35796;DHT22;21916;52.428;13.302;2023-04-24T05:30:21;12.40;99.90
35796;DHT22;21916;52.428;13.302;2023-04-24T05:32:49;12.40;99.90
35796;DHT22;21916;52.428;13.302;2023-04-24T05:35:15;12.40;99.90
35796;DHT22;21916;52.428;13.302;2023-04-24T05:37:41;12.50;99.90
35796;DHT22;21916;52.428;13.302;2023-04-24T05:40:09;12.50;99.90
35796;DHT22;21916;52.428;13.302;2023-04-24T05:42:35;12.60;99.90
35796;DHT22;21916;52.428;13.302;2023-04-24T05:45:02;12.60;99.90
35796;DHT22;21916;52.428;13.302;2023-04-24T05:47:28;12.60;99.90
35796;DHT22;21916;52.428;13.302;2023-04-24T05:49:54;12.60;99.90
35796;DHT22;21916;52.428;13.302;2023-04-24T05:52:20;12.60;99.90
35796;DHT22;21916;52.428;13.302;2023-04-24T05:54:48;12.60;99.90
35796;DHT22;21916;52.428;13.302;2023-04-24T05:57:19;12.60;99.90
35796;DHT22;21916;52.428;13.302;2023-04-24T05:59:56;12.70;99.90
35796;DHT22;21916;52.428;13.302;2023-04-24T06:02:23;12.70;99.90
35796;DHT22;21916;52.428;13.302;2023-04-24T06:04:49;12.70;99.90
35796;DHT22;21916;52.428;13.302;2023-04-24T06:07:15;12.80;99.90
35796;DHT22;21916;52.428;13.302;2023-04-24T06:09:42;12.80;99.90
35796;DHT22;21916;52.428;13.302;2023-04-24T06:12:09;12.80;99.90
35796;DHT22;21916;52.428;13.302;2023-04-24T06:14:55;12.90;99.90
35796;DHT22;21916;52.428;13.302;2023-04-24T06:17:31;13.00;99.90
35796;DHT22;21916;52.428;13.302;2023-04-24T06:19:58;13.00;99.90
35796;DHT22;21916;52.428;13.302;2023-04-24T06:22:24;13.20;99.90
35796;DHT22;21916;52.428;13.302;2023-04-24T06:24:50;13.20;99.90
35796;DHT22;21916;52.428;13.302;2023-04-24T06:27:17;13.30;99.90
35796;DHT22;21916;52.428;13.302;2023-04-24T06:29:43;13.50;99.90
35796;DHT22;21916;52.428;13.302;2023-04-24T06:32:09;13.60;99.90
35796;DHT22;21916;52.428;13.302;2023-04-24T06:34:35;13.90;99.90
35796;DHT22;21916;52.428;13.302;2023-04-24T06:37:02;13.90;99.90
35796;DHT22;21916;52.428;13.302;2023-04-24T06:39:28;14.00;99.90
35796;DHT22;21916;52.428;13.302;2023-04-24T06:41:54;14.20;99.90
35796;DHT22;21916;52.428;13.302;2023-04-24T06:44:20;14.20;99.90
35796;DHT22;21916;52.428;13.302;2023-04-24T06:46:46;14.20;99.90
35796;DHT22;21916;52.428;13.302;2023-04-24T06:49:12;14.20;99.90
35796;DHT22;21916;52.428;13.302;2023-04-24T06:51:41;14.20;99.90
35796;DHT22;21916;52.428;13.302;2023-04-24T06:54:07;14.10;99.90
35796;DHT22;21916;52.428;13.302;2023-04-24T06:56:33;14.10;99.90
35796;DHT22;21916;52.428;13.302;2023-04-24T06:58:59;14.20;99.90
35796;DHT22;21916;52.428;13.302;2023-04-24T07:01:25;14.30;99.90
35796;DHT22;21916;52.428;13.302;2023-04-24T07:03:55;14.40;99.90
35796;DHT22;21916;52.428;13.302;2023-04-24T07:06:21;14.40;99.90
35796;DHT22;21916;52.428;13.302;2023-04-24T07:08:48;14.60;99.90
35796;DHT22;21916;52.428;13.302;2023-04-24T07:11:14;14.80;99.90
35796;DHT22;21916;52.428;13.302;2023-04-24T07:13:40;15.00;99.90
35796;DHT22;21916;52.428;13.302;2023-04-24T07:16:08;15.20;99.90
35796;DHT22;21916;52.428;13.302;2023-04-24T07:18:34;15.10;99.90
35796;DHT22;21916;52.428;13.302;2023-04-24T07:21:00;15.00;99.90
35796;DHT22;21916;52.428;13.302;2023-04-24T07:23:26;14.90;99.90
35796;DHT22;21916;52.428;13.302;2023-04-24T07:25:53;14.90;99.90
35796;DHT22;21916;52.428;13.302;2023-04-24T07:28:19;15.10;99.90
35796;DHT22;21916;52.428;13.302;2023-04-24T07:30:45;15.10;99.90
35796;DHT22;21916;52.428;13.302;2023-04-24T07:33:12;15.20;99.90
35796;DHT22;21916;52.428;13.302;2023-04-24T07:35:39;15.50;99.90
35796;DHT22;21916;52.428;13.302;2023-04-24T07:38:05;15.70;99.90
35796;DHT22;21916;52.428;13.302;2023-04-24T07:40:31;15.60;99.90
35796;DHT22;21916;52.428;13.302;2023-04-24T07:42:58;15.60;99.90
35796;DHT22;21916;52.428;13.302;2023-04-24T07:45:24;15.70;99.90
35796;DHT22;21916;52.428;13.302;2023-04-24T07:47:51;15.70;99.90
35796;DHT22;21916;52.428;13.302;2023-04-24T07:50:17;15.80;99.90
35796;DHT22;21916;52.428;13.302;2023-04-24T07:52:43;15.90;99.90
35796;DHT22;21916;52.428;13.302;2023-04-24T07:55:09;15.90;99.90
35796;DHT22;21916;52.428;13.302;2023-04-24T07:57:36;16.00;99.90
35796;DHT22;21916;52.428;13.302;2023-04-24T08:00:04;16.10;99.90
35796;DHT22;21916;52.428;13.302;2023-04-24T08:02:38;16.30;99.90
35796;DHT22;21916;52.428;13.302;2023-04-24T08:05:04;16.50;99.90
35796;DHT22;21916;52.428;13.302;2023-04-24T08:07:30;16.70;99.90
35796;DHT22;21916;52.428;13.302;2023-04-24T08:09:56;16.60;99.90
35796;DHT22;21916;52.428;13.302;2023-04-24T08:12:22;16.60;99.90
35796;DHT22;21916;52.428;13.302;2023-04-24T08:14:49;16.50;99.90
35796;DHT22;21916;52.428;13.302;2023-04-24T08:17:16;16.70;99.90
35796;DHT22;21916;52.428;13.302;2023-04-24T08:19:42;16.80;99.90
35796;DHT22;21916;52.428;13.302;2023-04-24T08:22:16;16.70;99.90
35796;DHT22;21916;52.428;13.302;2023-04-24T08:24:42;16.60;99.90
35796;DHT22;21916;52.428;13.302;2023-04-24T08:27:09;16.80;99.90
35796;DHT22;21916;52.428;13.302;2023-04-24T08:29:36;17.00;99.90
35796;DHT22;21916;52.428;13.302;2023-04-24T08:32:04;17.20;99.90
35796;DHT22;21916;52.428;13.302;2023-04-24T08:34:30;17.20;99.90
35796;DHT22;21916;52.428;13.302;2023-04-24T08:36:56;17.20;99.90
35796;DHT22;21916;52.428;13.302;2023-04-24T08:39:23;17.30;99.90
35796;DHT22;21916;52.428;13.302;2023-04-24T08:41:50;17.20;99.90
35796;DHT22;21916;52.428;13.302;2023-04-24T08:44:19;17.30;99.90
35796;DHT22;21916;52.428;13.302;2023-04-24T08:46:48;17.60;99.90
35796;DHT22;21916;52.428;13.302;2023-04-24T08:49:15;17.60;99.90
35796;DHT22;21916;52.428;13.302;2023-04-24T08:51:44;17.50;99.90
35796;DHT22;21916;52.428;13.302;2023-04-24T08:54:13;17.60;99.90
35796;DHT22;21916;52.428;13.302;2023-04-24T08:56:40;17.50;99.90
35796;DHT22;21916;52.428;13.302;2023-04-24T08:59:09;17.30;99.90
35796;DHT22;21916;52.428;13.302;2023-04-24T09:01:37;17.20;99.90
35796;DHT22;21916;52.428;13.302;2023-04-24T09:04:07;16.90;99.90
35796;DHT22;21916;52.428;13.302;2023-04-24T09:06:33;16.80;99.90
35796;DHT22;21916;52.428;13.302;2023-04-24T09:09:01;16.80;99.90
35796;DHT22;21916;52.428;13.302;2023-04-24T09:11:27;17.00;99.90
35796;DHT22;21916;52.428;13.302;2023-04-24T09:13:54;17.10;99.90
35796;DHT22;21916;52.428;13.302;2023-04-24T09:16:20;17.20;99.90
35796;DHT22;21916;52.428;13.302;2023-04-24T09:18:48;17.20;99.90
35796;DHT22;21916;52.428;13.302;2023-04-24T09:21:14;17.00;99.90
35796;DHT22;21916;52.428;13.302;2023-04-24T09:23:41;17.00;99.90
35796;DHT22;21916;52.428;13.302;2023-04-24T09:26:09;17.10;99.90
35796;DHT22;21916;52.428;13.302;2023-04-24T09:28:38;17.10;99.90
35796;DHT22;21916;52.428;13.302;2023-04-24T09:31:06;17.10;99.90
35796;DHT22;21916;52.428;13.302;2023-04-24T09:33:33;16.90;99.90
35796;DHT22;21916;52.428;13.302;2023-04-24T09:35:59;16.90;99.90
35796;DHT22;21916;52.428;13.302;2023-04-24T09:38:38;17.10;99.90
35796;DHT22;21916;52.428;13.302;2023-04-24T09:41:08;17.40;99.90
35796;DHT22;21916;52.428;13.302;2023-04-24T09:43:38;17.30;99.90
35796;DHT22;21916;52.428;13.302;2023-04-24T09:46:06;17.20;99.90
35796;DHT22;21916;52.428;13.302;2023-04-24T09:48:34;17.20;99.90
35796;DHT22;21916;52.428;13.302;2023-04-24T09:51:02;17.20;99.90
35796;DHT22;21916;52.428;13.302;2023-04-24T09:53:29;17.20;99.90
35796;DHT22;21916;52.428;13.302;2023-04-24T09:55:55;17.20;99.90
35796;DHT22;21916;52.428;13.302;2023-04-24T09:58:26;17.20;99.90
35796;DHT22;21916;52.428;13.302;2023-04-24T10:00:56;17.30;99.90
35796;DHT22;21916;52.428;13.302;2023-04-24T10:03:26;17.30;99.90
35796;DHT22;21916;52.428;13.302;2023-04-24T10:06:01;17.80;99.90
35796;DHT22;21916;52.428;13.302;2023-04-24T10:08:34;17.90;99.90
35796;DHT22;21916;52.428;13.302;2023-04-24T10:11:00;18.10;99.90
35796;DHT22;21916;52.428;13.302;2023-04-24T10:13:28;18.00;99.90
35796;DHT22;21916;52.428;13.302;2023-04-24T10:15:54;17.80;99.90
35796;DHT22;21916;52.428;13.302;2023-04-24T10:18:22;17.80;99.90
35796;DHT22;21916;52.428;13.302;2023-04-24T10:20:49;17.80;99.90
35796;DHT22;21916;52.428;13.302;2023-04-24T10:23:16;17.50;99.90
35796;DHT22;21916;52.428;13.302;2023-04-24T10:25:45;17.30;99.90
35796;DHT22;21916;52.428;13.302;2023-04-24T10:28:11;17.10;99.90
35796;DHT22;21916;52.428;13.302;2023-04-24T10:30:39;16.80;99.90
35796;DHT22;21916;52.428;13.302;2023-04-24T10:33:08;16.70;99.90
35796;DHT22;21916;52.428;13.302;2023-04-24T10:35:37;16.60;99.90
35796;DHT22;21916;52.428;13.302;2023-04-24T10:38:13;16.40;99.90
35796;DHT22;21916;52.428;13.302;2023-04-24T10:40:39;16.30;99.90
35796;DHT22;21916;52.428;13.302;2023-04-24T10:43:07;16.20;99.90
35796;DHT22;21916;52.428;13.302;2023-04-24T10:45:40;16.00;99.90
35796;DHT22;21916;52.428;13.302;2023-04-24T10:48:08;15.80;99.90
35796;DHT22;21916;52.428;13.302;2023-04-24T10:50:46;15.50;99.90
35796;DHT22;21916;52.428;13.302;2023-04-24T10:53:21;15.40;99.90
35796;DHT22;21916;52.428;13.302;2023-04-24T10:55:51;15.90;99.90
35796;DHT22;21916;52.428;13.302;2023-04-24T10:58:22;17.10;99.90
35796;DHT22;21916;52.428;13.302;2023-04-24T11:00:58;18.20;99.90
35796;DHT22;21916;52.428;13.302;2023-04-24T11:03:30;19.20;99.90
35796;DHT22;21916;52.428;13.302;2023-04-24T11:06:07;20.50;99.90
35796;DHT22;21916;52.428;13.302;2023-04-24T11:11:24;20.40;98.30
35796;DHT22;21916;52.428;13.302;2023-04-24T11:16:29;20.00;98.20
35796;DHT22;21916;52.428;13.302;2023-04-24T11:22:01;19.50;98.80
35796;DHT22;21916;52.428;13.302;2023-04-24T11:27:22;19.10;99.90
35796;DHT22;21916;52.428;13.302;2023-04-24T11:32:33;20.90;99.90
35796;DHT22;21916;52.428;13.302;2023-04-24T11:35:07;21.60;99.70
35796;DHT22;21916;52.428;13.302;2023-04-24T11:37:36;21.40;99.60
35796;DHT22;21916;52.428;13.302;2023-04-24T11:40:03;20.40;99.90
35796;DHT22;21916;52.428;13.302;2023-04-24T11:42:34;19.80;99.90
35796;DHT22;21916;52.428;13.302;2023-04-24T11:45:00;19.50;99.90
35796;DHT22;21916;52.428;13.302;2023-04-24T11:47:29;19.20;99.90
35796;DHT22;21916;52.428;13.302;2023-04-24T11:49:58;18.70;99.90
35796;DHT22;21916;52.428;13.302;2023-04-24T11:52:24;18.50;99.90
35796;DHT22;21916;52.428;13.302;2023-04-24T11:54:50;18.30;99.90
35796;DHT22;21916;52.428;13.302;2023-04-24T11:57:20;18.20;99.90
35796;DHT22;21916;52.428;13.302;2023-04-24T11:59:47;19.00;99.90
35796;DHT22;21916;52.428;13.302;2023-04-24T12:02:23;19.80;99.90
35796;DHT22;21916;52.428;13.302;2023-04-24T12:04:50;20.30;99.90
35796;DHT22;21916;52.428;13.302;2023-04-24T12:07:16;21.00;98.80
35796;DHT22;21916;52.428;13.302;2023-04-24T12:09:47;22.30;96.70
35796;DHT22;21916;52.428;13.302;2023-04-24T12:12:16;23.40;94.40
35796;DHT22;21916;52.428;13.302;2023-04-24T12:14:45;22.90;93.60
35796;DHT22;21916;52.428;13.302;2023-04-24T12:17:12;23.10;91.60
35796;DHT22;21916;52.428;13.302;2023-04-24T12:19:47;21.60;87.30
35796;DHT22;21916;52.428;13.302;2023-04-24T12:22:14;20.50;87.90
35796;DHT22;21916;52.428;13.302;2023-04-24T12:24:56;19.80;89.70
35796;DHT22;21916;52.428;13.302;2023-04-24T12:27:22;19.50;91.10
35796;DHT22;21916;52.428;13.302;2023-04-24T12:29:57;19.90;90.40
35796;DHT22;21916;52.428;13.302;2023-04-24T12:32:23;20.60;89.00
35796;DHT22;21916;52.428;13.302;2023-04-24T12:34:52;20.20;88.50
35796;DHT22;21916;52.428;13.302;2023-04-24T12:37:19;20.30;89.40
35796;DHT22;21916;52.428;13.302;2023-04-24T12:40:06;20.80;86.00
35796;DHT22;21916;52.428;13.302;2023-04-24T12:42:34;21.50;83.50
35796;DHT22;21916;52.428;13.302;2023-04-24T12:45:03;21.30;82.90
35796;DHT22;21916;52.428;13.302;2023-04-24T12:47:31;20.60;83.30
35796;DHT22;21916;52.428;13.302;2023-04-24T12:49:57;20.30;83.50
35796;DHT22;21916;52.428;13.302;2023-04-24T12:52:24;20.20;84.70
35796;DHT22;21916;52.428;13.302;2023-04-24T12:54:58;20.30;83.40
35796;DHT22;21916;52.428;13.302;2023-04-24T12:57:25;20.70;82.20
35796;DHT22;21916;52.428;13.302;2023-04-24T12:59:54;20.40;78.50
35796;DHT22;21916;52.428;13.302;2023-04-24T13:02:23;20.10;79.40
35796;DHT22;21916;52.428;13.302;2023-04-24T13:04:50;20.80;78.70
35796;DHT22;21916;52.428;13.302;2023-04-24T13:07:16;22.10;78.30
35796;DHT22;21916;52.428;13.302;2023-04-24T13:09:43;22.70;76.40
35796;DHT22;21916;52.428;13.302;2023-04-24T13:12:11;23.90;74.20
35796;DHT22;21916;52.428;13.302;2023-04-24T13:14:38;24.00;71.60
35796;DHT22;21916;52.428;13.302;2023-04-24T13:17:04;24.60;71.10
35796;DHT22;21916;52.428;13.302;2023-04-24T13:19:39;24.10;68.90
35796;DHT22;21916;52.428;13.302;2023-04-24T13:22:06;23.80;68.20
35796;DHT22;21916;52.428;13.302;2023-04-24T13:24:34;23.90;66.90
35796;DHT22;21916;52.428;13.302;2023-04-24T13:27:00;23.10;67.80
35796;DHT22;21916;52.428;13.302;2023-04-24T13:29:27;21.70;68.20
35796;DHT22;21916;52.428;13.302;2023-04-24T13:31:54;22.10;68.40
35796;DHT22;21916;52.428;13.302;2023-04-24T13:34:24;23.00;67.80
35796;DHT22;21916;52.428;13.302;2023-04-24T13:36:53;23.00;67.90
35796;DHT22;21916;52.428;13.302;2023-04-24T13:39:21;22.90;68.60
35796;DHT22;21916;52.428;13.302;2023-04-24T13:41:48;23.80;66.00
35796;DHT22;21916;52.428;13.302;2023-04-24T13:44:15;23.90;63.50
35796;DHT22;21916;52.428;13.302;2023-04-24T13:46:42;23.80;64.80
35796;DHT22;21916;52.428;13.302;2023-04-24T13:49:10;22.60;65.60
35796;DHT22;21916;52.428;13.302;2023-04-24T13:51:36;21.20;68.60
35796;DHT22;21916;52.428;13.302;2023-04-24T13:54:02;20.00;69.90
35796;DHT22;21916;52.428;13.302;2023-04-24T13:56:31;19.30;71.70
35796;DHT22;21916;52.428;13.302;2023-04-24T13:58:57;19.10;72.20
35796;DHT22;21916;52.428;13.302;2023-04-24T14:01:23;18.80;72.60
35796;DHT22;21916;52.428;13.302;2023-04-24T14:03:52;18.70;74.10
35796;DHT22;21916;52.428;13.302;2023-04-24T14:06:19;18.80;73.80
35796;DHT22;21916;52.428;13.302;2023-04-24T14:08:45;18.60;74.40
35796;DHT22;21916;52.428;13.302;2023-04-24T14:11:12;19.40;73.80
35796;DHT22;21916;52.428;13.302;2023-04-24T14:13:39;21.20;71.30
35796;DHT22;21916;52.428;13.302;2023-04-24T14:16:06;21.20;68.60
35796;DHT22;21916;52.428;13.302;2023-04-24T14:18:32;21.10;67.90
35796;DHT22;21916;52.428;13.302;2023-04-24T14:20:58;20.80;67.80
35796;DHT22;21916;52.428;13.302;2023-04-24T14:23:26;20.00;69.60
35796;DHT22;21916;52.428;13.302;2023-04-24T14:25:52;19.20;70.90
35796;DHT22;21916;52.428;13.302;2023-04-24T14:28:19;18.80;73.60
35796;DHT22;21916;52.428;13.302;2023-04-24T14:30:46;20.20;72.10
35796;DHT22;21916;52.428;13.302;2023-04-24T14:33:13;21.80;69.90
35796;DHT22;21916;52.428;13.302;2023-04-24T14:35:40;22.80;68.30
35796;DHT22;21916;52.428;13.302;2023-04-24T14:38:07;23.00;67.90
35796;DHT22;21916;52.428;13.302;2023-04-24T14:40:35;24.10;66.60
35796;DHT22;21916;52.428;13.302;2023-04-24T14:43:01;23.40;65.70
35796;DHT22;21916;52.428;13.302;2023-04-24T14:45:29;22.40;67.00
35796;DHT22;21916;52.428;13.302;2023-04-24T14:47:55;22.20;67.50
35796;DHT22;21916;52.428;13.302;2023-04-24T14:50:21;21.60;68.10
35796;DHT22;21916;52.428;13.302;2023-04-24T14:52:47;20.20;70.20
35796;DHT22;21916;52.428;13.302;2023-04-24T14:55:14;19.40;72.70
35796;DHT22;21916;52.428;13.302;2023-04-24T14:57:40;18.80;73.90
35796;DHT22;21916;52.428;13.302;2023-04-24T15:00:07;18.60;74.30
35796;DHT22;21916;52.428;13.302;2023-04-24T15:02:36;18.50;74.60
35796;DHT22;21916;52.428;13.302;2023-04-24T15:05:06;18.30;75.10
35796;DHT22;21916;52.428;13.302;2023-04-24T15:07:33;19.70;73.70
35796;DHT22;21916;52.428;13.302;2023-04-24T15:09:59;20.40;71.50
35796;DHT22;21916;52.428;13.302;2023-04-24T15:12:25;20.30;72.10
35796;DHT22;21916;52.428;13.302;2023-04-24T15:14:52;20.00;70.50
35796;DHT22;21916;52.428;13.302;2023-04-24T15:17:18;18.80;72.40
35796;DHT22;21916;52.428;13.302;2023-04-24T15:19:43;18.00;74.10
35796;DHT22;21916;52.428;13.302;2023-04-24T15:22:10;17.60;75.50
35796;DHT22;21916;52.428;13.302;2023-04-24T15:24:36;17.20;76.20
35796;DHT22;21916;52.428;13.302;2023-04-24T15:27:02;17.00;77.00
35796;DHT22;21916;52.428;13.302;2023-04-24T15:29:29;17.20;76.80
35796;DHT22;21916;52.428;13.302;2023-04-24T15:31:55;16.90;77.20
35796;DHT22;21916;52.428;13.302;2023-04-24T15:34:21;16.80;79.30